createdAt,value
2019-05-12T00:04:25.132Z,1016.35
2019-05-12T00:09:28.105Z,1016.39
2019-05-12T00:14:28.284Z,1016.47
2019-05-12T00:19:25.766Z,1016.62
2019-05-12T00:24:27.949Z,1016.72
2019-05-12T00:29:25.747Z,1016.79
2019-05-12T00:34:25.005Z,1016.76
2019-05-12T00:39:27.889Z,1016.86
2019-05-12T00:44:25.724Z,1016.91
2019-05-12T00:49:25.736Z,1016.95
2019-05-12T00:54:25.779Z,1017.10
2019-05-12T00:59:27.822Z,1017.15
2019-05-12T01:04:25.745Z,1017.13
2019-05-12T01:09:24.750Z,1017.20
2019-05-12T01:14:24.830Z,1017.23
2019-05-12T01:19:23.961Z,1017.29
2019-05-12T01:24:22.986Z,1017.28
2019-05-12T01:29:22.770Z,1017.43
2019-05-12T01:34:22.974Z,1017.47
2019-05-12T01:39:22.794Z,1017.54
2019-05-12T01:44:22.920Z,1017.65
2019-05-12T01:49:22.814Z,1017.73
2019-05-12T01:54:21.938Z,1017.79
2019-05-12T01:59:20.788Z,1017.82
2019-05-12T02:04:20.077Z,1017.86
2019-05-12T02:09:20.816Z,1017.99
2019-05-12T02:14:22.394Z,1017.98
2019-05-12T02:19:21.912Z,1018.11
2019-05-12T02:24:26.744Z,1018.18
2019-05-12T02:29:21.908Z,1018.21
2019-05-12T02:34:25.110Z,1018.26
2019-05-12T02:39:24.612Z,1018.38
2019-05-12T02:44:20.766Z,1018.52
2019-05-12T02:49:20.824Z,1018.49
2019-05-12T02:54:20.735Z,1018.50
2019-05-12T02:59:20.721Z,1018.53
2019-05-12T03:04:20.057Z,1018.60
2019-05-12T03:09:19.766Z,1018.59
2019-05-12T03:14:20.848Z,1018.64
2019-05-12T03:19:20.775Z,1018.73
2019-05-12T03:24:24.728Z,1018.80
2019-05-12T03:29:24.871Z,1018.87
2019-05-12T03:34:21.987Z,1019.04
2019-05-12T03:39:20.788Z,1019.06
2019-05-12T03:44:19.980Z,1019.11
2019-05-12T03:49:19.031Z,1019.21
2019-05-12T03:54:19.851Z,1019.29
2019-05-12T03:59:18.857Z,1019.26
2019-05-12T04:04:17.803Z,1019.39
2019-05-12T04:09:17.774Z,1019.50
2019-05-12T04:14:17.785Z,1019.61
2019-05-12T04:19:17.777Z,1019.59
2019-05-12T04:24:16.808Z,1019.65
2019-05-12T04:29:18.845Z,1019.74
2019-05-12T04:34:19.213Z,1019.88
2019-05-12T04:39:16.806Z,1020.02
2019-05-12T04:44:16.842Z,1020.01
2019-05-12T04:49:16.227Z,1019.94
2019-05-12T04:54:15.806Z,1020.11
2019-05-12T04:59:16.055Z,1020.21
2019-05-12T05:04:15.649Z,1020.22
2019-05-12T05:09:14.603Z,1020.37
2019-05-12T05:14:14.448Z,1020.49
2019-05-12T05:19:13.868Z,1020.63
2019-05-12T05:24:14.225Z,1020.65
2019-05-12T05:29:13.568Z,1020.84
2019-05-12T05:34:14.906Z,1020.90
2019-05-12T05:39:14.067Z,1020.87
2019-05-12T05:44:14.027Z,1021.02
2019-05-12T05:49:13.916Z,1020.97
2019-05-12T05:54:13.751Z,1021.12
2019-05-12T05:59:14.938Z,1021.13
2019-05-12T06:04:10.821Z,1021.20
2019-05-12T06:09:10.232Z,1021.26
2019-05-12T06:14:12.789Z,1021.25
2019-05-12T06:19:08.996Z,1021.31
2019-05-12T06:24:13.852Z,1021.33
2019-05-12T06:29:11.194Z,1021.37
2019-05-12T06:34:15.479Z,1021.48
2019-05-12T06:39:10.523Z,1021.58
2019-05-12T06:44:08.905Z,1021.72
2019-05-12T06:49:12.912Z,1021.70
2019-05-12T06:54:11.812Z,1021.72
2019-05-12T06:59:10.505Z,1021.87
2019-05-12T07:04:09.588Z,1021.91
2019-05-12T07:09:09.518Z,1021.93
2019-05-12T07:14:13.042Z,1021.78
2019-05-12T07:19:07.629Z,1021.91
2019-05-12T07:24:06.712Z,1021.90
2019-05-12T07:29:04.443Z,1022.05
2019-05-12T07:34:07.184Z,1022.00
2019-05-12T07:39:04.199Z,1022.04
2019-05-12T07:44:03.587Z,1022.01
2019-05-12T07:54:04.176Z,1022.09
2019-05-12T07:59:04.448Z,1022.13
2019-05-12T08:04:04.510Z,1022.16
2019-05-12T08:09:04.149Z,1022.12
2019-05-12T08:14:03.695Z,1022.18
2019-05-12T08:19:03.912Z,1022.17
2019-05-12T08:24:03.795Z,1022.29
2019-05-12T08:29:04.160Z,1022.28
2019-05-12T08:34:04.189Z,1022.27
2019-05-12T08:39:05.877Z,1022.32
2019-05-12T08:44:04.445Z,1022.26
2019-05-12T08:49:03.030Z,1022.31
2019-05-12T08:54:03.167Z,1022.30
2019-05-12T08:59:01.123Z,1022.41
2019-05-12T09:04:06.456Z,1022.41
2019-05-12T09:09:03.357Z,1022.56
2019-05-12T09:14:01.118Z,1022.39
2019-05-12T09:19:01.108Z,1022.42
2019-05-12T09:29:03.312Z,1022.51
2019-05-12T09:34:05.930Z,1022.43
2019-05-12T09:39:02.070Z,1022.54
2019-05-12T09:44:01.785Z,1022.51
2019-05-12T09:49:01.071Z,1022.60
2019-05-12T09:54:01.121Z,1022.72
2019-05-12T09:59:02.864Z,1022.64
2019-05-12T10:04:00.474Z,1022.59
2019-05-12T10:09:03.306Z,1022.65
2019-05-12T10:14:05.132Z,1022.74
2019-05-12T10:18:59.116Z,1022.72
2019-05-12T10:24:01.772Z,1022.81
2019-05-12T10:29:13.344Z,1022.77
2019-05-12T10:33:59.168Z,1022.79
2019-05-12T10:38:58.067Z,1022.79
2019-05-12T10:43:57.839Z,1022.93
2019-05-12T10:48:56.489Z,1022.98
2019-05-12T10:54:00.168Z,1022.87
2019-05-12T10:58:55.086Z,1022.75
2019-05-12T11:03:56.156Z,1022.81
2019-05-12T11:08:56.104Z,1022.77
2019-05-12T11:13:56.063Z,1022.76
2019-05-12T11:19:00.361Z,1022.88
2019-05-12T11:23:56.045Z,1022.89
2019-05-12T11:28:56.066Z,1023.02
2019-05-12T11:33:56.075Z,1023.00
2019-05-12T11:38:56.058Z,1022.96
2019-05-12T11:43:56.181Z,1022.90
2019-05-12T11:48:55.228Z,1022.89
2019-05-12T11:53:54.524Z,1022.99
2019-05-12T11:58:54.409Z,1023.11
2019-05-12T12:03:54.685Z,1023.15
2019-05-12T12:08:55.059Z,1022.98
2019-05-12T12:13:54.148Z,1023.12
2019-05-12T12:19:02.319Z,1023.08
2019-05-12T12:23:53.433Z,1023.08
2019-05-12T12:28:51.362Z,1023.03
2019-05-12T12:33:50.601Z,1023.06
2019-05-12T12:38:50.042Z,1023.31
2019-05-12T12:43:50.045Z,1023.28
2019-05-12T12:48:49.320Z,1023.24
2019-05-12T12:53:49.131Z,1023.25
2019-05-12T12:58:48.162Z,1023.18
2019-05-12T13:03:48.059Z,1023.18
2019-05-12T13:08:48.091Z,1023.14
2019-05-12T13:13:47.166Z,1023.23
2019-05-12T13:18:46.480Z,1023.20
2019-05-12T13:23:46.153Z,1023.18
2019-05-12T13:28:53.006Z,1023.19
2019-05-12T13:33:44.338Z,1023.23
2019-05-12T13:38:44.345Z,1023.32
2019-05-12T13:43:43.372Z,1023.25
2019-05-12T13:48:43.420Z,1023.26
2019-05-12T13:53:46.392Z,1023.22
2019-05-12T13:58:45.754Z,1023.25
2019-05-12T14:03:48.661Z,1023.47
2019-05-12T14:08:44.553Z,1023.35
2019-05-12T14:13:43.070Z,1023.45
2019-05-12T14:18:44.215Z,1023.47
2019-05-12T14:23:43.714Z,1023.46
2019-05-12T14:28:45.629Z,1023.58
2019-05-12T14:33:44.222Z,1023.55
2019-05-12T14:38:42.090Z,1023.61
2019-05-12T14:43:45.562Z,1023.59
2019-05-12T14:48:45.580Z,1023.64
2019-05-12T14:53:41.102Z,1023.62
2019-05-12T14:58:40.314Z,1023.69
2019-05-12T15:03:42.399Z,1023.67
2019-05-12T15:08:40.331Z,1023.65
2019-05-12T15:13:40.083Z,1023.64
2019-05-12T15:18:46.785Z,1023.65
2019-05-12T15:23:41.023Z,1023.74
2019-05-12T15:28:39.976Z,1023.69
2019-05-12T15:33:39.931Z,1023.81
2019-05-12T15:38:38.285Z,1023.80
2019-05-12T15:43:43.346Z,1023.87
2019-05-12T15:48:37.243Z,1023.98
2019-05-12T15:53:37.071Z,1024.00
2019-05-12T15:58:36.284Z,1024.08
2019-05-12T16:03:36.098Z,1024.15
2019-05-12T16:08:35.157Z,1024.20
2019-05-12T16:13:35.048Z,1024.14
2019-05-12T16:18:34.560Z,1024.21
2019-05-12T16:23:34.262Z,1024.13
2019-05-12T16:28:33.640Z,1024.22
2019-05-12T16:33:33.414Z,1024.19
2019-05-12T16:38:31.283Z,1024.19
2019-05-12T16:43:35.140Z,1024.21
2019-05-12T16:48:33.936Z,1024.32
2019-05-12T16:53:33.944Z,1024.33
2019-05-12T16:58:35.168Z,1024.25
2019-05-12T17:03:31.068Z,1024.25
2019-05-12T17:08:31.020Z,1024.31
2019-05-12T17:13:31.029Z,1024.33
2019-05-12T17:18:33.895Z,1024.38
2019-05-12T17:23:32.024Z,1024.42
2019-05-12T17:28:34.285Z,1024.34
2019-05-12T17:33:33.902Z,1024.35
2019-05-12T17:38:34.081Z,1024.58
2019-05-12T17:43:30.987Z,1024.59
2019-05-12T17:48:30.174Z,1024.52
2019-05-12T17:53:30.565Z,1024.51
2019-05-12T18:03:30.040Z,1024.64
2019-05-12T18:08:32.979Z,1024.62
2019-05-12T18:13:28.298Z,1024.73
2019-05-12T18:18:32.793Z,1024.74
2019-05-12T18:23:30.386Z,1024.81
2019-05-12T18:28:29.523Z,1024.81
2019-05-12T18:33:33.849Z,1024.87
2019-05-12T18:38:28.031Z,1024.78
2019-05-12T18:43:29.081Z,1024.96
2019-05-12T18:48:28.999Z,1025.08
2019-05-12T18:53:31.934Z,1024.94
2019-05-12T18:58:31.128Z,1024.94
2019-05-12T19:03:27.159Z,1025.01
2019-05-12T19:08:26.256Z,1025.11
2019-05-12T19:13:25.347Z,1025.16
2019-05-12T19:18:32.345Z,1025.21
2019-05-12T19:23:26.905Z,1025.24
2019-05-12T19:28:25.994Z,1025.47
2019-05-12T19:33:27.000Z,1025.43
2019-05-12T19:38:26.566Z,1025.48
2019-05-12T19:43:26.059Z,1025.61
2019-05-12T19:48:27.583Z,1025.73
2019-05-12T19:53:25.031Z,1025.71
2019-05-12T19:58:25.098Z,1025.73
2019-05-12T20:03:25.102Z,1025.84
2019-05-12T20:08:26.019Z,1025.85
2019-05-12T20:13:29.666Z,1025.94
2019-05-12T20:18:24.729Z,1026.00
2019-05-12T20:23:24.666Z,1026.11
2019-05-12T20:28:24.446Z,1026.12
2019-05-12T20:33:24.044Z,1026.25
2019-05-12T20:38:25.428Z,1026.22
2019-05-12T20:43:24.106Z,1026.36
2019-05-12T20:48:26.481Z,1026.42
2019-05-12T20:53:24.783Z,1026.42
2019-05-12T20:58:21.090Z,1026.46
2019-05-12T21:03:20.114Z,1026.51
2019-05-12T21:08:20.003Z,1026.52
2019-05-12T21:13:20.312Z,1026.54
2019-05-12T21:18:19.077Z,1026.61
2019-05-12T21:23:18.105Z,1026.76
2019-05-12T21:28:16.976Z,1026.77
2019-05-12T21:33:17.124Z,1026.82
2019-05-12T21:38:19.040Z,1026.87
2019-05-12T21:43:17.077Z,1026.91
2019-05-12T21:48:23.616Z,1026.92
2019-05-12T21:53:20.537Z,1026.97
2019-05-12T21:58:16.977Z,1027.01
2019-05-12T22:03:17.100Z,1027.06
2019-05-12T22:08:20.826Z,1027.05
2019-05-12T22:13:18.081Z,1027.09
2019-05-12T22:18:16.046Z,1027.16
2019-05-12T22:23:16.004Z,1027.22
2019-05-12T22:28:16.046Z,1027.27
2019-05-12T22:33:16.030Z,1027.39
2019-05-12T22:38:19.530Z,1027.48
2019-05-12T22:43:16.087Z,1027.42
2019-05-12T22:48:16.052Z,1027.57
2019-05-12T22:53:19.307Z,1027.51
2019-05-12T22:58:18.251Z,1027.51
2019-05-12T23:03:15.166Z,1027.62
2019-05-12T23:08:14.275Z,1027.64
2019-05-12T23:13:14.038Z,1027.70
2019-05-12T23:18:14.201Z,1027.63
2019-05-12T23:23:15.384Z,1027.61
2019-05-12T23:28:12.998Z,1027.65
2019-05-12T23:33:14.294Z,1027.71
2019-05-12T23:38:16.765Z,1027.76
2019-05-12T23:43:14.626Z,1027.84
2019-05-12T23:48:14.453Z,1027.78
2019-05-12T23:53:14.204Z,1027.87
2019-05-12T23:58:14.503Z,1027.85
